createdAt,value
2023-02-14T00:00:49.699Z,20.55
2023-02-14T00:03:16.903Z,19.33
2023-02-14T00:05:44.137Z,21.33
2023-02-14T00:08:11.629Z,17.80
2023-02-14T00:10:38.779Z,22.17
2023-02-14T00:13:05.966Z,18.95
2023-02-14T00:15:33.094Z,15.82
2023-02-14T00:18:00.343Z,21.95
2023-02-14T00:20:28.115Z,16.75
2023-02-14T00:22:55.553Z,21.65
2023-02-14T00:25:22.886Z,16.30
2023-02-14T00:27:50.094Z,18.77
2023-02-14T00:30:17.986Z,18.08
2023-02-14T00:32:45.149Z,16.83
2023-02-14T00:35:12.419Z,15.48
2023-02-14T00:37:39.571Z,17.17
2023-02-14T00:40:07.333Z,15.75
2023-02-14T00:42:34.714Z,17.00
2023-02-14T00:45:01.920Z,17.02
2023-02-14T00:47:29.176Z,21.27
2023-02-14T00:49:56.963Z,18.98
2023-02-14T00:52:24.145Z,15.32
2023-02-14T00:54:51.316Z,21.83
2023-02-14T00:57:18.418Z,18.33
2023-02-14T00:59:45.637Z,20.55
2023-02-14T01:02:13.402Z,20.20
2023-02-14T01:04:40.640Z,21.20
2023-02-14T01:07:07.753Z,17.40
2023-02-14T01:09:34.921Z,16.30
2023-02-14T01:12:02.059Z,16.23
2023-02-14T01:14:29.271Z,16.05
2023-02-14T01:16:56.517Z,17.50
2023-02-14T01:19:23.762Z,17.45
2023-02-14T01:21:51.015Z,13.65
2023-02-14T01:24:18.264Z,16.80
2023-02-14T01:26:46.025Z,15.70
2023-02-14T01:29:13.247Z,17.02
2023-02-14T01:31:40.520Z,15.85
2023-02-14T01:34:07.751Z,18.13
2023-02-14T01:36:37.614Z,15.05
2023-02-14T01:39:06.076Z,12.52
2023-02-14T01:41:34.179Z,16.02
2023-02-14T01:44:02.990Z,13.35
2023-02-14T01:46:31.336Z,17.55
2023-02-14T01:49:01.759Z,14.68
2023-02-14T01:51:29.470Z,19.08
2023-02-14T01:53:57.628Z,15.00
2023-02-14T01:56:28.205Z,18.00
2023-02-14T01:58:57.465Z,15.50
2023-02-14T02:01:24.736Z,15.10
2023-02-14T02:03:54.485Z,13.27
2023-02-14T02:06:24.515Z,12.73
2023-02-14T02:08:57.478Z,15.05
2023-02-14T02:11:24.622Z,13.35
2023-02-14T02:13:51.750Z,11.07
2023-02-14T02:16:27.305Z,12.75
2023-02-14T02:19:13.194Z,13.68
2023-02-14T02:21:50.382Z,13.75
2023-02-14T02:24:22.587Z,10.68
2023-02-14T02:26:49.841Z,15.20
2023-02-14T02:29:20.068Z,13.73
2023-02-14T02:32:09.523Z,10.77
2023-02-14T02:34:45.408Z,11.70
2023-02-14T02:37:31.333Z,12.32
2023-02-14T02:40:07.748Z,13.25
2023-02-14T02:42:44.170Z,11.82
2023-02-14T02:45:36.937Z,12.90
2023-02-14T02:48:14.198Z,11.23
2023-02-14T02:51:02.247Z,12.70
2023-02-14T02:53:44.454Z,12.27
2023-02-14T02:56:42.584Z,13.60
2023-02-14T02:59:18.249Z,10.50
2023-02-14T03:01:55.671Z,11.05
2023-02-14T03:04:42.190Z,10.35
2023-02-14T03:07:28.077Z,9.85
2023-02-14T03:09:57.635Z,9.98
2023-02-14T03:12:30.961Z,10.13
2023-02-14T03:14:58.727Z,10.65
2023-02-14T03:17:30.349Z,11.50
2023-02-14T03:20:16.316Z,9.55
2023-02-14T03:22:54.602Z,10.98
2023-02-14T03:25:29.504Z,10.13
2023-02-14T03:27:59.641Z,8.70
2023-02-14T03:30:26.964Z,8.07
2023-02-14T03:32:59.398Z,12.63
2023-02-14T03:35:30.918Z,7.90
2023-02-14T03:38:15.684Z,8.93
2023-02-14T03:40:46.787Z,13.45
2023-02-14T03:43:16.259Z,11.23
2023-02-14T03:45:46.167Z,12.40
2023-02-14T03:48:14.893Z,9.55
2023-02-14T03:50:43.547Z,10.23
2023-02-14T03:53:11.676Z,9.75
2023-02-14T03:55:59.086Z,10.10
2023-02-14T03:58:31.766Z,10.23
2023-02-14T04:01:01.548Z,15.15
2023-02-14T04:03:29.822Z,13.63
2023-02-14T04:05:57.125Z,17.05
2023-02-14T04:08:25.972Z,15.30
2023-02-14T04:10:53.756Z,15.15
2023-02-14T04:13:21.736Z,15.52
2023-02-14T04:15:49.007Z,12.50
2023-02-14T04:18:35.860Z,13.85
2023-02-14T04:21:03.042Z,12.00
2023-02-14T04:23:30.194Z,10.65
2023-02-14T04:25:57.429Z,9.55
2023-02-14T04:28:24.617Z,11.82
2023-02-14T04:30:53.190Z,9.45
2023-02-14T04:33:20.337Z,9.48
2023-02-14T04:35:49.058Z,11.38
2023-02-14T04:38:16.182Z,14.15
2023-02-14T04:40:43.490Z,9.07
2023-02-14T04:43:10.699Z,9.00
2023-02-14T04:45:37.906Z,8.15
2023-02-14T04:48:05.013Z,9.57
2023-02-14T04:50:32.187Z,8.82
2023-02-14T04:52:59.437Z,11.23
2023-02-14T04:55:26.557Z,9.02
2023-02-14T04:57:53.746Z,9.35
2023-02-14T05:00:21.084Z,10.25
2023-02-14T05:02:48.370Z,14.30
2023-02-14T05:05:15.534Z,10.43
2023-02-14T05:07:47.643Z,9.70
2023-02-14T05:10:15.031Z,13.17
2023-02-14T05:12:42.587Z,12.82
2023-02-14T05:15:10.132Z,10.30
2023-02-14T05:17:37.423Z,10.70
2023-02-14T05:20:07.952Z,12.68
2023-02-14T05:22:35.406Z,10.80
2023-02-14T05:25:02.636Z,10.30
2023-02-14T05:27:29.852Z,9.18
2023-02-14T05:29:57.064Z,7.50
2023-02-14T05:32:24.245Z,11.05
2023-02-14T05:34:51.354Z,9.25
2023-02-14T05:37:18.540Z,9.40
2023-02-14T05:39:45.806Z,7.03
2023-02-14T05:42:13.153Z,8.02
2023-02-14T05:44:40.574Z,8.10
2023-02-14T05:47:07.887Z,11.57
2023-02-14T05:49:36.317Z,9.52
2023-02-14T05:52:03.623Z,8.30
2023-02-14T05:54:31.055Z,8.77
2023-02-14T05:56:58.488Z,10.18
2023-02-14T05:59:25.924Z,12.00
2023-02-14T06:01:53.282Z,12.85
2023-02-14T06:04:20.589Z,11.20
2023-02-14T06:06:48.085Z,14.95
2023-02-14T06:09:15.519Z,14.95
2023-02-14T06:11:43.461Z,13.23
2023-02-14T06:14:10.716Z,13.63
2023-02-14T06:16:38.248Z,22.90
2023-02-14T06:19:05.620Z,19.20
2023-02-14T06:21:33.562Z,23.15
2023-02-14T06:24:00.843Z,16.33
2023-02-14T06:26:28.150Z,14.90
2023-02-14T06:28:56.431Z,18.08
2023-02-14T06:31:23.898Z,23.90
2023-02-14T06:33:51.208Z,18.33
2023-02-14T06:36:18.772Z,15.63
2023-02-14T06:38:48.251Z,12.82
2023-02-14T06:41:17.131Z,14.07
2023-02-14T06:43:45.690Z,13.98
2023-02-14T06:46:13.013Z,18.17
2023-02-14T06:48:41.067Z,17.27
2023-02-14T06:51:08.359Z,16.20
2023-02-14T06:53:38.272Z,16.38
2023-02-14T06:56:05.858Z,22.30
2023-02-14T06:58:33.608Z,14.57
2023-02-14T07:01:01.206Z,18.65
2023-02-14T07:03:28.891Z,17.17
2023-02-14T07:05:56.120Z,17.77
2023-02-14T07:08:25.938Z,20.85
2023-02-14T07:10:57.932Z,16.67
2023-02-14T07:13:25.943Z,14.93
2023-02-14T07:15:53.236Z,18.35
2023-02-14T07:18:20.808Z,20.95
2023-02-14T07:20:48.077Z,20.33
2023-02-14T07:23:15.495Z,17.45
2023-02-14T07:25:42.700Z,27.50
2023-02-14T07:28:09.988Z,20.65
2023-02-14T07:30:37.454Z,22.08
2023-02-14T07:33:04.904Z,19.83
2023-02-14T07:35:32.126Z,22.38
2023-02-14T07:37:59.369Z,28.85
2023-02-14T07:40:26.684Z,32.45
2023-02-14T07:42:54.504Z,30.45
2023-02-14T07:45:22.514Z,35.03
2023-02-14T07:47:51.325Z,31.23
2023-02-14T07:50:19.401Z,21.77
2023-02-14T07:52:47.010Z,26.15
2023-02-14T07:55:14.858Z,32.67
2023-02-14T07:57:42.025Z,32.30
2023-02-14T08:00:09.577Z,31.85
2023-02-14T08:02:36.941Z,24.05
2023-02-14T08:05:04.213Z,22.55
2023-02-14T08:07:31.628Z,20.52
2023-02-14T08:09:59.183Z,24.08
2023-02-14T08:12:45.374Z,22.50
2023-02-14T08:15:31.221Z,24.40
2023-02-14T08:17:58.483Z,27.60
2023-02-14T08:20:25.948Z,20.75
2023-02-14T08:22:53.257Z,27.70
2023-02-14T08:25:20.680Z,26.38
2023-02-14T08:27:48.199Z,25.08
2023-02-14T08:30:15.657Z,32.75
2023-02-14T08:32:42.939Z,44.88
2023-02-14T08:35:10.224Z,726.53
2023-02-14T08:37:37.388Z,1999.90
2023-02-14T08:40:04.919Z,1999.90
2023-02-14T08:42:32.254Z,1920.97
2023-02-14T08:44:59.734Z,35.72
2023-02-14T08:47:27.385Z,27.02
2023-02-14T08:49:54.876Z,14.88
2023-02-14T08:52:22.058Z,11.45
2023-02-14T08:54:49.239Z,7.38
2023-02-14T08:57:16.403Z,7.88
2023-02-14T08:59:43.675Z,7.75
2023-02-14T09:02:15.897Z,7.35
2023-02-14T09:04:43.160Z,8.50
2023-02-14T09:07:12.011Z,7.38
2023-02-14T09:09:39.295Z,7.25
2023-02-14T09:12:08.451Z,6.75
2023-02-14T09:14:39.469Z,5.25
2023-02-14T09:17:07.225Z,7.07
2023-02-14T09:19:34.782Z,6.07
2023-02-14T09:22:04.705Z,7.53
2023-02-14T09:24:33.003Z,5.13
2023-02-14T09:27:00.381Z,4.53
2023-02-14T09:29:28.896Z,6.72
2023-02-14T09:31:57.180Z,7.47
2023-02-14T09:34:24.567Z,5.95
2023-02-14T09:37:11.067Z,4.20
2023-02-14T09:39:38.995Z,4.22
2023-02-14T09:42:18.488Z,5.22
2023-02-14T09:45:15.312Z,5.28
2023-02-14T09:47:48.687Z,4.75
2023-02-14T09:50:19.255Z,4.28
2023-02-14T09:52:48.957Z,12.77
2023-02-14T09:55:17.324Z,24.35
2023-02-14T09:57:49.792Z,3.35
2023-02-14T10:00:20.913Z,4.75
2023-02-14T10:03:06.597Z,3.40
2023-02-14T10:05:37.032Z,3.53
2023-02-14T10:08:19.383Z,4.05
2023-02-14T10:10:48.753Z,3.40
2023-02-14T10:13:23.301Z,3.58
2023-02-14T10:15:54.668Z,3.40
2023-02-14T10:18:24.590Z,3.10
2023-02-14T10:20:52.109Z,3.42
2023-02-14T10:23:34.507Z,5.28
2023-02-14T10:26:04.625Z,2.90
2023-02-14T10:28:34.079Z,2.70
2023-02-14T10:31:06.969Z,2.67
2023-02-14T10:33:39.767Z,2.55
2023-02-14T10:36:18.812Z,2.63
2023-02-14T10:38:50.089Z,2.67
2023-02-14T10:41:29.321Z,2.40
2023-02-14T10:44:14.850Z,2.40
2023-02-14T10:46:50.650Z,2.35
2023-02-14T10:49:27.352Z,1.90
2023-02-14T10:52:01.602Z,5.97
2023-02-14T10:54:33.354Z,2.65
2023-02-14T10:57:07.181Z,4.85
2023-02-14T10:59:49.892Z,2.08
2023-02-14T11:02:18.451Z,1.88
2023-02-14T11:04:47.314Z,1.70
2023-02-14T11:07:18.841Z,2.03
2023-02-14T11:09:46.304Z,10.07
2023-02-14T11:12:13.647Z,17.67
2023-02-14T11:14:41.351Z,2.35
2023-02-14T11:17:29.595Z,15.77
2023-02-14T11:20:02.826Z,4.90
2023-02-14T11:22:31.299Z,1.80
2023-02-14T11:25:18.384Z,1.90
2023-02-14T11:27:50.307Z,1.52
2023-02-14T11:30:20.834Z,1.88
2023-02-14T11:32:55.154Z,3.92
2023-02-14T11:35:28.502Z,2.45
2023-02-14T11:37:58.819Z,3.80
2023-02-14T11:40:34.883Z,1.88
2023-02-14T11:43:14.249Z,4.85
2023-02-14T11:45:46.705Z,2.30
2023-02-14T11:48:31.447Z,2.90
2023-02-14T11:51:13.902Z,2.10
2023-02-14T11:53:53.814Z,2.42
2023-02-14T11:56:22.088Z,1.15
2023-02-14T11:59:00.885Z,3.55
2023-02-14T12:01:32.705Z,75.10
2023-02-14T12:04:04.477Z,5.07
2023-02-14T12:06:33.592Z,15.07
2023-02-14T12:09:14.079Z,3.67
2023-02-14T12:11:41.338Z,1.67
2023-02-14T12:14:21.101Z,6.32
2023-02-14T12:16:53.079Z,9.90
2023-02-14T12:19:40.553Z,4.40
2023-02-14T12:22:08.149Z,3.70
2023-02-14T12:24:42.402Z,32.97
2023-02-14T12:27:21.676Z,3.50
2023-02-14T12:30:01.139Z,12.07
2023-02-14T12:32:32.205Z,5.65
2023-02-14T12:35:04.251Z,2.55
2023-02-14T12:37:50.714Z,3.20
2023-02-14T12:40:41.836Z,9.15
2023-02-14T12:43:29.760Z,17.15
2023-02-14T12:46:04.556Z,15.27
2023-02-14T12:48:34.876Z,6.57
2023-02-14T12:51:14.206Z,1.77
2023-02-14T12:53:50.491Z,6.43
2023-02-14T12:56:33.798Z,2.22
2023-02-14T12:59:17.066Z,6.40
2023-02-14T13:01:50.867Z,2.20
2023-02-14T13:04:36.787Z,7.93
2023-02-14T13:07:14.198Z,17.75
2023-02-14T13:10:00.133Z,8.23
2023-02-14T13:12:45.175Z,5.95
2023-02-14T13:15:47.977Z,2.17
2023-02-14T13:18:36.473Z,7.85
2023-02-14T13:21:05.679Z,5.80
2023-02-14T13:23:41.050Z,2.30
2023-02-14T13:26:12.126Z,9.23
2023-02-14T13:28:40.044Z,2.47
2023-02-14T13:31:07.603Z,2.70
2023-02-14T13:33:36.777Z,2.67
2023-02-14T13:36:07.719Z,10.18
2023-02-14T13:38:38.858Z,8.15
2023-02-14T13:41:07.315Z,7.93
2023-02-14T13:43:56.320Z,9.02
2023-02-14T13:46:43.549Z,10.25
2023-02-14T13:49:14.014Z,6.00
2023-02-14T13:52:04.528Z,25.83
2023-02-14T13:54:34.197Z,7.30
2023-02-14T13:57:02.281Z,23.10
2023-02-14T13:59:34.066Z,15.27
2023-02-14T14:02:30.948Z,41.50
2023-02-14T14:04:58.318Z,7.47
2023-02-14T14:07:27.176Z,16.85
2023-02-14T14:09:55.622Z,15.20
2023-02-14T14:12:28.970Z,29.45
2023-02-14T14:15:05.488Z,28.25
2023-02-14T14:17:51.916Z,23.05
2023-02-14T14:20:21.885Z,27.88
2023-02-14T14:22:50.224Z,15.93
2023-02-14T14:25:34.491Z,35.03
2023-02-14T14:28:01.760Z,60.20
2023-02-14T14:30:32.094Z,34.72
2023-02-14T14:33:18.002Z,25.23
2023-02-14T14:35:55.593Z,29.55
2023-02-14T14:38:23.689Z,23.85
2023-02-14T14:40:51.280Z,9.73
2023-02-14T14:43:30.672Z,27.92
2023-02-14T14:45:59.485Z,26.70
2023-02-14T14:48:41.898Z,28.33
2023-02-14T14:51:15.758Z,19.00
2023-02-14T14:53:47.466Z,18.63
2023-02-14T14:56:18.985Z,14.25
2023-02-14T14:58:46.935Z,19.67
2023-02-14T15:01:27.934Z,19.02
2023-02-14T15:03:55.140Z,10.55
2023-02-14T15:06:23.081Z,8.52
2023-02-14T15:08:51.776Z,5.07
2023-02-14T15:11:43.771Z,5.50
2023-02-14T15:14:14.831Z,8.07
2023-02-14T15:16:45.727Z,18.73
2023-02-14T15:19:21.476Z,16.80
2023-02-14T15:21:48.938Z,23.13
2023-02-14T15:24:17.547Z,19.45
2023-02-14T15:26:46.110Z,17.08
2023-02-14T15:29:21.288Z,8.45
2023-02-14T15:31:48.697Z,7.95
2023-02-14T15:34:16.060Z,9.82
2023-02-14T15:36:49.051Z,7.07
2023-02-14T15:39:17.668Z,6.20
2023-02-14T15:41:45.921Z,3.50
2023-02-14T15:44:39.469Z,7.90
2023-02-14T15:47:06.932Z,15.15
2023-02-14T15:49:36.218Z,15.18
2023-02-14T15:52:04.977Z,18.80
2023-02-14T15:54:38.136Z,8.02
2023-02-14T15:57:06.603Z,4.35
2023-02-14T15:59:35.334Z,8.45
2023-02-14T16:02:04.639Z,2.72
2023-02-14T16:04:33.479Z,22.08
2023-02-14T16:07:19.376Z,10.60
2023-02-14T16:09:46.586Z,6.07
2023-02-14T16:12:34.918Z,5.97
2023-02-14T16:15:04.576Z,5.15
2023-02-14T16:17:33.543Z,6.68
2023-02-14T16:20:00.791Z,6.47
2023-02-14T16:22:32.441Z,8.68
2023-02-14T16:25:00.033Z,10.63
2023-02-14T16:27:27.202Z,5.32
2023-02-14T16:29:54.412Z,8.27
2023-02-14T16:32:22.468Z,8.18
2023-02-14T16:34:50.466Z,7.45
2023-02-14T16:37:22.790Z,6.13
2023-02-14T16:39:51.011Z,5.20
2023-02-14T16:42:18.962Z,10.80
2023-02-14T16:44:46.671Z,7.85
2023-02-14T16:47:15.284Z,4.32
2023-02-14T16:49:42.614Z,9.48
2023-02-14T16:52:23.460Z,8.82
2023-02-14T16:54:50.916Z,11.35
2023-02-14T16:57:22.665Z,7.38
2023-02-14T16:59:50.634Z,5.90
2023-02-14T17:02:19.176Z,8.82
2023-02-14T17:04:46.483Z,7.57
2023-02-14T17:07:15.023Z,19.90
2023-02-14T17:09:44.883Z,22.42
2023-02-14T17:12:16.435Z,13.02
2023-02-14T17:14:45.957Z,17.65
2023-02-14T17:17:13.485Z,23.23
2023-02-14T17:19:40.773Z,15.30
2023-02-14T17:22:07.998Z,17.35
2023-02-14T17:24:35.250Z,21.92
2023-02-14T17:27:02.403Z,16.85
2023-02-14T17:29:29.580Z,19.40
2023-02-14T17:31:56.876Z,16.02
2023-02-14T17:34:24.197Z,18.20
2023-02-14T17:36:54.682Z,16.50
2023-02-14T17:39:21.845Z,20.73
2023-02-14T17:41:49.488Z,21.90
2023-02-14T17:44:16.972Z,17.55
2023-02-14T17:46:44.390Z,26.83
2023-02-14T17:49:11.572Z,46.28
2023-02-14T17:51:38.737Z,37.45
2023-02-14T17:54:05.972Z,63.13
2023-02-14T17:56:33.230Z,38.72
2023-02-14T17:59:00.484Z,41.78
2023-02-14T18:01:31.712Z,59.70
2023-02-14T18:03:58.970Z,34.88
2023-02-14T18:06:26.851Z,49.15
2023-02-14T18:08:56.918Z,29.48
2023-02-14T18:11:25.937Z,31.67
2023-02-14T18:13:56.726Z,31.65
2023-02-14T18:16:24.911Z,29.95
2023-02-14T18:18:52.553Z,30.58
2023-02-14T18:21:21.362Z,35.08
2023-02-14T18:23:48.860Z,37.65
2023-02-14T18:26:18.112Z,45.90
2023-02-14T18:28:45.516Z,43.53
2023-02-14T18:31:14.197Z,51.20
2023-02-14T18:33:41.458Z,40.65
2023-02-14T18:36:13.144Z,43.75
2023-02-14T18:38:41.112Z,40.40
2023-02-14T18:41:09.352Z,32.25
2023-02-14T18:43:37.170Z,32.58
2023-02-14T18:46:12.295Z,26.60
2023-02-14T18:48:39.804Z,30.50
2023-02-14T18:51:11.286Z,22.20
2023-02-14T18:53:39.628Z,23.92
2023-02-14T18:56:07.876Z,22.48
2023-02-14T18:58:35.532Z,21.30
2023-02-14T19:01:13.285Z,23.63
2023-02-14T19:03:41.295Z,23.70
2023-02-14T19:06:08.907Z,24.05
2023-02-14T19:08:37.193Z,20.05
2023-02-14T19:11:04.500Z,18.08
2023-02-14T19:13:32.243Z,14.13
2023-02-14T19:15:59.995Z,19.13
2023-02-14T19:18:27.196Z,17.67
2023-02-14T19:20:54.363Z,17.30
2023-02-14T19:23:21.707Z,22.73
2023-02-14T19:25:49.382Z,17.92
2023-02-14T19:28:16.905Z,21.15
2023-02-14T19:30:44.544Z,18.60
2023-02-14T19:33:11.838Z,20.20
2023-02-14T19:35:39.013Z,25.30
2023-02-14T19:38:06.170Z,19.65
2023-02-14T19:40:33.394Z,18.23
2023-02-14T19:43:03.182Z,15.85
2023-02-14T19:45:32.572Z,18.52
2023-02-14T19:48:01.655Z,21.58
2023-02-14T19:50:29.775Z,19.50
2023-02-14T19:52:58.363Z,18.50
2023-02-14T19:55:27.831Z,28.45
2023-02-14T19:57:55.274Z,21.50
2023-02-14T20:00:22.588Z,22.98
2023-02-14T20:02:49.812Z,18.70
2023-02-14T20:05:17.930Z,18.40
2023-02-14T20:07:45.326Z,16.40
2023-02-14T20:10:12.582Z,18.58
2023-02-14T20:12:40.021Z,17.98
2023-02-14T20:15:09.197Z,24.83
2023-02-14T20:17:37.746Z,25.00
2023-02-14T20:20:06.499Z,25.50
2023-02-14T20:22:33.662Z,24.13
2023-02-14T20:25:00.872Z,21.20
2023-02-14T20:27:28.578Z,15.57
2023-02-14T20:29:56.268Z,19.33
2023-02-14T20:32:23.480Z,17.95
2023-02-14T20:34:51.818Z,16.58
2023-02-14T20:37:19.051Z,18.02
2023-02-14T20:39:46.184Z,14.32
2023-02-14T20:42:13.539Z,18.98
2023-02-14T20:44:41.559Z,17.33
2023-02-14T20:47:08.820Z,17.88
2023-02-14T20:49:36.059Z,16.50
2023-02-14T20:52:03.921Z,16.75
2023-02-14T20:54:31.424Z,17.73
2023-02-14T20:56:58.675Z,19.25
2023-02-14T20:59:29.124Z,35.03
2023-02-14T21:01:57.123Z,27.23
2023-02-14T21:04:24.971Z,18.05
2023-02-14T21:06:52.185Z,22.98
2023-02-14T21:09:20.826Z,20.75
2023-02-14T21:11:48.217Z,20.02
2023-02-14T21:14:17.412Z,21.95
2023-02-14T21:16:44.704Z,18.63
2023-02-14T21:19:11.835Z,19.83
2023-02-14T21:21:39.489Z,17.50
2023-02-14T21:24:10.944Z,16.20
2023-02-14T21:26:38.746Z,18.15
2023-02-14T21:29:06.444Z,20.02
2023-02-14T21:31:34.510Z,20.13
2023-02-14T21:34:02.466Z,15.90
2023-02-14T21:36:31.304Z,21.77
2023-02-14T21:38:59.304Z,20.52
2023-02-14T21:41:27.980Z,23.38
2023-02-14T21:43:58.705Z,16.90
2023-02-14T21:46:29.369Z,20.23
2023-02-14T21:49:15.747Z,20.02
2023-02-14T21:51:43.283Z,19.48
2023-02-14T21:54:10.489Z,17.67
2023-02-14T21:56:38.194Z,22.92
2023-02-14T21:59:05.807Z,20.73
2023-02-14T22:01:34.708Z,19.48
2023-02-14T22:04:02.723Z,16.23
2023-02-14T22:06:29.979Z,14.18
2023-02-14T22:08:57.920Z,13.75
2023-02-14T22:11:25.969Z,17.52
2023-02-14T22:13:53.421Z,13.73
2023-02-14T22:16:21.471Z,12.82
2023-02-14T22:18:48.949Z,13.43
2023-02-14T22:21:20.505Z,12.82
2023-02-14T22:23:47.652Z,13.57
2023-02-14T22:26:16.509Z,10.75
2023-02-14T22:28:44.497Z,13.07
2023-02-14T22:31:13.690Z,15.63
2023-02-14T22:33:41.006Z,21.90
2023-02-14T22:36:08.459Z,18.52
2023-02-14T22:38:36.163Z,14.20
2023-02-14T22:41:18.660Z,12.02
2023-02-14T22:43:45.967Z,14.07
2023-02-14T22:46:15.186Z,10.98
2023-02-14T22:48:42.355Z,13.10
2023-02-14T22:51:29.047Z,11.27
2023-02-14T22:53:57.981Z,9.88
2023-02-14T22:56:29.013Z,13.48
2023-02-14T22:58:57.074Z,9.63
2023-02-14T23:01:24.738Z,10.48
2023-02-14T23:03:56.265Z,11.27
2023-02-14T23:06:24.417Z,14.40
2023-02-14T23:08:52.154Z,12.80
2023-02-14T23:11:20.875Z,10.95
2023-02-14T23:14:06.742Z,10.23
2023-02-14T23:16:52.612Z,9.80
2023-02-14T23:19:39.504Z,9.48
2023-02-14T23:22:11.467Z,11.10
2023-02-14T23:24:38.925Z,10.95
2023-02-14T23:27:06.928Z,9.75
2023-02-14T23:29:34.323Z,11.60
2023-02-14T23:32:01.537Z,11.68
2023-02-14T23:34:29.958Z,11.05
2023-02-14T23:36:57.292Z,14.23
2023-02-14T23:39:24.499Z,13.93
2023-02-14T23:41:52.029Z,10.07
2023-02-14T23:44:19.612Z,9.73
2023-02-14T23:46:48.093Z,10.52
2023-02-14T23:49:16.029Z,10.35
2023-02-14T23:51:43.615Z,9.70
2023-02-14T23:54:11.216Z,9.57
2023-02-14T23:56:38.812Z,9.98
2023-02-14T23:59:06.505Z,10.18
